Time;durP1;ratioP1;P1;durP2;ratioP2;P2;SDS_P1;SDS_P2;PMS_P1;PMS_P2;Temp;Humidity;BMP_temperature;BMP_pressure;BME280_temperature;BME280_humidity;BME280_pressure;Samples;Min_cycle;Max_cycle;Signal;HPM_P1;HPM_P2
2022/05/05 00:00:56;;;;;;;9.55;5.55;;;;;;;9.76;57.10;101581.78;4782095;29;119332;-79
2022/05/05 00:03:22;;;;;;;8.65;5.78;;;;;;;9.88;57.05;101594.06;4780229;29;119312;-79
2022/05/05 00:05:47;;;;;;;7.70;5.63;;;;;;;9.81;56.78;101593.00;4789570;29;119438;-79
2022/05/05 00:08:13;;;;;;;9.63;5.55;;;;;;;9.81;56.49;101601.22;4794963;29;119519;-79
2022/05/05 00:16:08;;;;;;;11.60;6.18;;;;;;;9.70;57.55;101599.88;4795701;29;119341;-79
2022/05/05 00:18:34;;;;;;;14.82;7.20;;;;;;;9.68;57.07;101600.31;4791574;29;119306;-79
2022/05/05 00:21:02;;;;;;;11.57;6.10;;;;;;;9.66;56.47;101599.19;4797753;29;119409;-79
2022/05/05 00:23:28;;;;;;;11.18;6.97;;;;;;;9.62;57.25;101596.53;4794489;29;119227;-79
2022/05/05 00:25:57;;;;;;;10.35;6.60;;;;;;;9.60;57.53;101606.34;4798289;29;122223;-79
2022/05/05 00:28:23;;;;;;;9.93;6.60;;;;;;;9.60;57.14;101600.88;4800752;29;119536;-79
2022/05/05 00:30:51;;;;;;;11.25;7.82;;;;;;;9.54;57.46;101595.91;4797739;29;119326;-79
2022/05/05 00:33:17;;;;;;;14.77;8.00;;;;;;;9.51;57.96;101598.72;4799184;29;119103;-79
2022/05/05 00:35:42;;;;;;;11.43;7.82;;;;;;;9.42;58.74;101596.50;4797822;29;119781;-79
2022/05/05 00:38:08;;;;;;;12.57;7.68;;;;;;;9.41;58.82;101600.44;4799290;29;119296;-79
2022/05/05 00:40:34;;;;;;;11.25;7.15;;;;;;;9.43;58.24;101597.28;4798689;29;119760;-79
2022/05/05 00:43:00;;;;;;;11.52;7.30;;;;;;;9.44;58.75;101602.34;4782247;29;119367;-79
2022/05/05 00:45:26;;;;;;;10.35;7.25;;;;;;;9.50;58.65;101613.59;4799658;29;119467;-79
2022/05/05 00:47:51;;;;;;;10.95;6.90;;;;;;;9.50;58.00;101610.84;4800018;29;119180;-79
2022/05/05 00:50:20;;;;;;;11.50;7.80;;;;;;;9.48;58.04;101610.50;4794528;29;119638;-79
2022/05/05 00:52:45;;;;;;;11.90;7.65;;;;;;;9.34;57.32;101594.31;4805043;29;119552;-79
2022/05/05 00:55:11;;;;;;;14.23;8.13;;;;;;;9.43;57.03;101608.22;4795834;29;119246;-79
2022/05/05 00:57:37;;;;;;;10.50;7.88;;;;;;;9.35;56.82;101610.34;4782363;29;119915;-79
2022/05/05 01:00:04;;;;;;;14.07;8.75;;;;;;;9.36;57.82;101608.38;4796820;29;119011;-79
2022/05/05 01:02:33;;;;;;;12.38;7.90;;;;;;;9.30;57.82;101604.56;4798252;29;119224;-80
2022/05/05 01:04:58;;;;;;;11.63;7.88;;;;;;;9.26;58.62;101592.91;4796309;29;119183;-79
2022/05/05 01:07:25;;;;;;;13.98;8.75;;;;;;;9.29;58.48;101600.28;4797478;29;119347;-79
2022/05/05 01:09:51;;;;;;;14.68;9.07;;;;;;;9.32;57.76;101613.16;4798736;29;119724;-79
2022/05/05 01:12:17;;;;;;;15.07;9.25;;;;;;;9.28;58.44;101610.47;4803018;29;119232;-79
2022/05/05 01:14:44;;;;;;;11.55;9.48;;;;;;;9.18;58.59;101601.25;4792352;29;119171;-80
2022/05/05 01:17:10;;;;;;;12.18;9.18;;;;;;;9.29;58.99;101616.72;4785695;29;118712;-79
2022/05/05 01:19:35;;;;;;;13.63;9.57;;;;;;;9.31;59.46;101614.34;4798347;29;119821;-79
2022/05/05 01:22:03;;;;;;;13.38;10.00;;;;;;;9.33;59.61;101603.72;4798859;29;119925;-79
2022/05/05 01:29:58;;;;;;;15.13;10.77;;;;;;;9.37;59.75;101613.44;4786017;29;120276;-79
2022/05/05 01:32:30;;;;;;;13.18;10.55;;;;;;;9.39;59.38;101613.00;4815110;29;119598;-79
2022/05/05 01:34:56;;;;;;;16.73;11.05;;;;;;;9.38;59.38;101617.72;4800136;29;122384;-79
2022/05/05 01:37:21;;;;;;;13.43;11.27;;;;;;;9.40;59.50;101614.56;4797803;29;119921;-79
2022/05/05 01:39:48;;;;;;;16.65;11.00;;;;;;;9.31;59.53;101611.59;4794345;29;119659;-79
2022/05/05 01:42:13;;;;;;;18.58;10.23;;;;;;;9.37;58.40;101621.63;4789672;29;119986;-79
2022/05/05 01:44:39;;;;;;;13.38;10.27;;;;;;;9.35;58.19;101626.75;4784723;29;119387;-79
2022/05/05 01:47:07;;;;;;;14.95;10.38;;;;;;;9.29;58.15;101619.47;4770543;29;120776;-79
2022/05/05 01:49:32;;;;;;;20.55;10.48;;;;;;;9.27;57.57;101625.34;4796608;29;119738;-79
2022/05/05 01:51:58;;;;;;;16.33;10.63;;;;;;;9.22;57.65;101634.03;4800390;29;119870;-79
2022/05/05 01:54:24;;;;;;;16.75;10.80;;;;;;;9.20;58.10;101633.66;4798545;29;119091;-79
2022/05/05 01:56:52;;;;;;;14.52;11.00;;;;;;;9.15;58.40;101623.22;4794686;29;119458;-79
2022/05/05 01:59:18;;;;;;;16.05;9.90;;;;;;;9.18;59.22;101628.63;4797848;29;119211;-79
2022/05/05 02:01:44;;;;;;;16.40;11.20;;;;;;;9.16;59.14;101631.00;4789021;29;119838;-79
2022/05/05 02:04:10;;;;;;;14.48;10.57;;;;;;;9.17;58.51;101629.81;4802463;29;119476;-79
2022/05/05 02:06:35;;;;;;;13.07;11.02;;;;;;;9.11;58.71;101620.53;4801582;29;119771;-79
2022/05/05 02:09:01;;;;;;;14.35;10.68;;;;;;;9.17;58.07;101634.50;4800458;29;119213;-79
2022/05/05 02:11:27;;;;;;;16.65;11.35;;;;;;;9.12;58.08;101621.31;4800984;29;119156;-79
2022/05/05 02:13:52;;;;;;;15.48;10.93;;;;;;;9.14;58.19;101627.91;4809420;29;119686;-79
2022/05/05 02:16:18;;;;;;;17.48;11.48;;;;;;;9.11;58.60;101628.75;4808728;29;119269;-79
2022/05/05 02:18:44;;;;;;;15.98;11.10;;;;;;;9.12;58.02;101630.28;4784414;29;120824;-79
2022/05/05 02:21:09;;;;;;;16.95;11.23;;;;;;;9.12;58.45;101637.72;4800365;29;120572;-79
2022/05/05 02:23:35;;;;;;;17.13;11.05;;;;;;;9.13;58.50;101633.81;4800786;29;119855;-79
2022/05/05 02:26:01;;;;;;;15.27;10.35;;;;;;;9.06;58.53;101637.44;4800438;29;120866;-79
2022/05/05 02:28:27;;;;;;;13.20;10.20;;;;;;;9.07;58.40;101636.25;4800907;29;119725;-79
2022/05/05 02:30:55;;;;;;;16.52;11.05;;;;;;;9.07;57.88;101641.72;4795024;29;119317;-79
2022/05/05 02:33:21;;;;;;;12.23;10.48;;;;;;;9.06;58.20;101639.41;4785974;29;119245;-80
2022/05/05 02:38:42;;;;;;;15.05;11.43;;;;;;;9.06;59.01;101648.38;4800792;29;120960;-79
2022/05/05 02:38:47;;;;;;;17.63;11.10;;;;;;;8.96;59.17;101630.16;4798794;29;119411;-79
2022/05/05 02:41:13;;;;;;;15.63;11.52;;;;;;;9.06;58.63;101651.13;4782459;29;120094;-79
2022/05/05 02:43:39;;;;;;;14.95;10.55;;;;;;;9.06;57.88;101644.88;4782799;29;119611;-79
2022/05/05 02:46:05;;;;;;;13.90;10.38;;;;;;;9.06;57.96;101642.13;4789414;29;119200;-79
2022/05/05 02:48:30;;;;;;;16.25;11.23;;;;;;;9.00;58.08;101641.06;4796832;29;119188;-79
2022/05/05 02:50:56;;;;;;;12.70;10.85;;;;;;;8.99;58.30;101645.78;4798865;29;119802;-80
2022/05/05 02:56:06;;;;;;;13.70;11.30;;;;;;;8.95;58.80;101647.75;4786500;29;120352;-79
2022/05/05 02:58:32;;;;;;;13.45;11.18;;;;;;;8.95;58.65;101645.03;4805512;29;119337;-79
2022/05/05 03:00:57;;;;;;;18.35;10.98;;;;;;;8.93;58.54;101641.94;4812193;29;119272;-79
2022/05/05 03:03:23;;;;;;;16.40;11.85;;;;;;;8.94;58.86;101635.28;4814901;29;119450;-79
2022/05/05 03:05:51;;;;;;;15.70;11.90;;;;;;;8.90;58.56;101637.31;4800518;29;119222;-79
2022/05/05 03:08:17;;;;;;;13.93;11.05;;;;;;;8.94;58.52;101646.22;4797608;29;119823;-79
2022/05/05 03:10:42;;;;;;;14.43;11.20;;;;;;;8.85;58.18;101635.81;4799724;29;119300;-79
2022/05/05 03:13:08;;;;;;;15.65;12.40;;;;;;;8.89;59.05;101643.97;4800871;29;120365;-79
2022/05/05 03:15:34;;;;;;;14.73;11.10;;;;;;;8.85;58.85;101637.78;4797166;29;120671;-79
2022/05/05 03:17:59;;;;;;;16.05;11.02;;;;;;;8.85;58.59;101645.97;4799182;29;119124;-79
2022/05/05 03:20:25;;;;;;;13.90;10.73;;;;;;;8.85;58.91;101637.78;4803098;29;120069;-79
2022/05/05 03:22:51;;;;;;;18.08;11.70;;;;;;;8.86;59.01;101639.31;4801159;29;120174;-79
2022/05/05 03:25:17;;;;;;;18.52;11.32;;;;;;;8.83;58.53;101640.16;4792277;29;121166;-79
2022/05/05 03:27:42;;;;;;;16.40;11.57;;;;;;;8.83;58.92;101642.88;4799036;29;119759;-79
2022/05/05 03:30:11;;;;;;;17.10;11.60;;;;;;;8.77;58.33;101633.63;4799342;29;119491;-79
2022/05/05 03:32:40;;;;;;;14.85;12.30;;;;;;;8.72;57.71;101636.78;4799415;29;119331;-79
2022/05/05 03:35:06;;;;;;;15.73;12.55;;;;;;;8.69;58.23;101632.16;4795931;29;120078;-79
2022/05/05 03:37:32;;;;;;;17.75;12.15;;;;;;;8.72;58.58;101645.78;4781009;29;119164;-79
2022/05/05 03:39:58;;;;;;;13.95;12.18;;;;;;;8.71;59.21;101646.19;4789714;29;119427;-79
2022/05/05 03:42:23;;;;;;;15.48;12.77;;;;;;;8.71;59.30;101646.19;4802855;29;119355;-79
2022/05/05 03:44:49;;;;;;;18.77;12.40;;;;;;;8.67;59.75;101645.47;4800608;29;119451;-79
2022/05/05 03:47:15;;;;;;;13.93;11.35;;;;;;;8.76;59.79;101648.47;4800579;29;119130;-79
2022/05/05 03:49:40;;;;;;;16.30;12.15;;;;;;;8.77;59.38;101652.75;4800172;29;119288;-79
2022/05/05 03:52:06;;;;;;;14.98;11.50;;;;;;;8.77;59.81;101656.28;4799335;29;119082;-79
2022/05/05 03:54:32;;;;;;;18.33;12.05;;;;;;;8.79;59.02;101658.59;4800287;29;120566;-79
2022/05/05 03:56:57;;;;;;;15.02;11.77;;;;;;;8.73;58.94;101641.06;4799873;29;119580;-79
2022/05/05 03:59:23;;;;;;;15.10;11.52;;;;;;;8.81;58.95;101667.16;4800008;29;120036;-79
2022/05/05 04:01:49;;;;;;;15.55;12.23;;;;;;;8.78;58.65;101654.31;4797229;29;120104;-79
2022/05/05 04:04:19;;;;;;;15.50;12.18;;;;;;;8.79;58.30;101664.84;4787466;29;119403;-79
2022/05/05 04:06:48;;;;;;;14.82;12.23;;;;;;;8.82;58.80;101671.44;4801569;29;119907;-79
2022/05/05 04:09:13;;;;;;;16.20;12.40;;;;;;;8.77;58.54;101655.50;4800086;29;119763;-79
2022/05/05 04:11:42;;;;;;;15.85;11.50;;;;;;;8.80;58.18;101660.13;4784023;29;119291;-80
2022/05/05 04:14:07;;;;;;;17.83;12.57;;;;;;;8.82;58.54;101669.47;4799266;29;119833;-79
2022/05/05 04:16:33;;;;;;;18.77;13.10;;;;;;;8.77;58.52;101661.75;4791835;29;119439;-79
2022/05/05 04:19:01;;;;;;;19.85;12.48;;;;;;;8.77;58.93;101660.97;4799690;29;119118;-79
2022/05/05 04:21:27;;;;;;;18.02;13.65;;;;;;;8.85;59.76;101667.88;4799094;29;119088;-79
2022/05/05 04:23:52;;;;;;;17.33;13.27;;;;;;;8.82;60.17;101666.75;4809351;29;120277;-79
2022/05/05 04:26:19;;;;;;;14.77;12.90;;;;;;;8.94;60.19;101668.09;4803261;29;119562;-79
2022/05/05 04:28:48;;;;;;;16.77;12.60;;;;;;;8.95;59.10;101666.16;4799240;29;120236;-79
2022/05/05 04:31:16;;;;;;;17.75;13.60;;;;;;;9.03;59.97;101673.84;4786564;29;119535;-79
2022/05/05 04:33:42;;;;;;;19.25;13.02;;;;;;;8.96;59.59;101665.72;4798153;29;119670;-79
2022/05/05 04:36:09;;;;;;;18.85;14.25;;;;;;;9.12;60.01;101681.53;4798012;29;119766;-79
2022/05/05 04:38:35;;;;;;;19.58;13.05;;;;;;;9.12;60.12;101674.09;4798695;29;119469;-79
2022/05/05 04:41:01;;;;;;;16.83;12.65;;;;;;;9.21;59.07;101679.78;4798720;29;119191;-79
2022/05/05 04:43:27;;;;;;;16.83;13.23;;;;;;;9.25;58.70;101687.19;4799408;29;119344;-79
2022/05/05 04:45:53;;;;;;;16.52;13.00;;;;;;;9.25;59.47;101682.50;4797670;29;119862;-79
2022/05/05 04:48:18;;;;;;;23.48;14.45;;;;;;;9.31;60.11;101691.00;4801719;29;119869;-79
2022/05/05 04:50:44;;;;;;;18.58;14.07;;;;;;;9.36;60.20;101690.50;4794634;29;119229;-79
2022/05/05 04:53:10;;;;;;;19.00;15.25;;;;;;;9.43;61.25;101698.59;4805424;29;120282;-79
2022/05/05 04:55:35;;;;;;;21.17;15.25;;;;;;;9.41;61.31;101687.28;4803361;29;119304;-79
2022/05/05 04:58:01;;;;;;;26.38;16.67;;;;;;;9.53;61.97;101689.44;4791018;29;119185;-79
2022/05/05 05:00:27;;;;;;;28.85;17.48;;;;;;;9.65;61.72;101699.78;4803649;29;119584;-79
2022/05/05 05:02:53;;;;;;;24.45;16.20;;;;;;;9.72;61.56;101705.16;4798854;29;119577;-79
2022/05/05 05:05:18;;;;;;;20.50;15.00;;;;;;;9.73;61.55;101687.50;4805321;29;119210;-79
2022/05/05 05:07:44;;;;;;;19.35;15.52;;;;;;;9.89;61.96;101699.75;4803502;29;119246;-79
2022/05/05 05:10:10;;;;;;;18.50;15.00;;;;;;;9.98;61.64;101697.22;4807145;29;119216;-79
2022/05/05 05:12:36;;;;;;;20.10;15.27;;;;;;;10.09;62.48;101711.50;4786237;29;120325;-79
2022/05/05 05:15:02;;;;;;;19.98;15.88;;;;;;;10.19;62.21;101715.22;4784193;29;119447;-79
2022/05/05 05:17:28;;;;;;;18.20;15.63;;;;;;;10.28;62.31;101707.22;4805083;29;119270;-79
2022/05/05 05:19:54;;;;;;;19.02;14.02;;;;;;;10.37;61.44;101716.41;4799075;29;119806;-79
2022/05/05 05:22:19;;;;;;;19.38;14.57;;;;;;;10.45;61.31;101709.63;4801664;29;119517;-79
2022/05/05 05:24:45;;;;;;;19.75;15.90;;;;;;;10.57;61.94;101721.88;4794266;29;120360;-79
2022/05/05 05:27:11;;;;;;;21.15;15.73;;;;;;;10.67;62.12;101711.91;4804656;29;119558;-79
2022/05/05 05:29:36;;;;;;;22.17;13.93;;;;;;;10.76;61.34;101723.06;4807511;29;119550;-80
2022/05/05 05:32:02;;;;;;;22.95;14.40;;;;;;;10.82;61.27;101710.38;4802916;29;119795;-81
2022/05/05 05:34:31;;;;;;;16.00;13.18;;;;;;;10.91;61.31;101715.28;4805424;29;119552;-79
2022/05/05 05:36:57;;;;;;;19.42;13.45;;;;;;;10.96;61.35;101715.53;4805724;29;119396;-80
2022/05/05 05:39:22;;;;;;;23.92;11.98;;;;;;;11.10;61.31;101730.13;4804886;29;119817;-79
2022/05/05 05:41:48;;;;;;;16.80;11.75;;;;;;;11.17;61.60;101719.75;4805950;29;119452;-79
2022/05/05 05:44:14;;;;;;;20.55;12.48;;;;;;;11.32;61.77;101722.91;4802512;29;119474;-79
2022/05/05 05:46:39;;;;;;;22.58;13.02;;;;;;;11.47;62.00;101724.13;4806220;29;119503;-80
2022/05/05 05:49:05;;;;;;;16.23;11.73;;;;;;;11.61;61.97;101725.75;4787092;29;119649;-79
2022/05/05 05:51:34;;;;;;;18.25;12.75;;;;;;;11.68;61.69;101714.56;4802565;29;119222;-81
2022/05/05 05:54:00;;;;;;;17.30;11.48;;;;;;;11.79;61.30;101722.53;4836569;29;119589;-80
2022/05/05 05:56:26;;;;;;;14.88;10.23;;;;;;;11.92;60.74;101728.88;4811633;29;119343;-80
2022/05/05 05:58:52;;;;;;;16.20;9.85;;;;;;;12.01;60.24;101729.00;4803682;29;119408;-80
2022/05/05 06:01:17;;;;;;;15.18;10.35;;;;;;;12.08;59.84;101728.06;4795590;29;119512;-80
2022/05/05 06:03:56;;;;;;;21.55;10.70;;;;;;;12.24;59.71;101748.00;4798560;29;119626;-79
2022/05/05 06:06:25;;;;;;;16.50;9.40;;;;;;;12.39;59.89;101744.88;4803462;29;119790;-82
2022/05/05 06:08:51;;;;;;;15.55;10.02;;;;;;;12.49;60.14;101732.78;4794626;29;119423;-80
2022/05/05 06:11:18;;;;;;;21.38;9.82;;;;;;;12.65;59.10;101729.94;4793466;29;119783;-80
2022/05/05 06:13:47;;;;;;;19.33;8.20;;;;;;;12.77;58.76;101723.66;4807238;29;120356;-80
2022/05/05 06:16:13;;;;;;;19.75;8.27;;;;;;;12.89;57.96;101728.41;4803528;29;119350;-80
2022/05/05 06:18:41;;;;;;;17.20;8.48;;;;;;;13.08;58.11;101745.16;4798066;29;121252;-82
2022/05/05 06:21:07;;;;;;;15.45;9.32;;;;;;;13.21;58.58;101745.94;4803168;29;119695;-80
2022/05/05 06:23:33;;;;;;;13.98;7.95;;;;;;;13.33;58.03;101736.91;4808374;29;119481;-80
2022/05/05 06:25:59;;;;;;;15.55;8.52;;;;;;;13.38;58.35;101730.81;4799244;29;119374;-80
2022/05/05 06:28:25;;;;;;;17.58;8.45;;;;;;;13.50;57.51;101743.81;4803282;29;120203;-80
2022/05/05 06:30:50;;;;;;;19.92;8.70;;;;;;;13.57;57.71;101737.28;4806669;29;119407;-79
2022/05/05 06:33:19;;;;;;;18.58;8.82;;;;;;;13.62;56.85;101749.72;4801544;29;119403;-80
2022/05/05 06:35:44;;;;;;;22.42;10.27;;;;;;;13.66;57.54;101750.38;4808061;29;119267;-80
2022/05/05 06:38:10;;;;;;;16.23;9.68;;;;;;;13.78;57.60;101747.59;4799518;29;121130;-79
2022/05/05 06:40:36;;;;;;;16.30;8.57;;;;;;;13.92;56.14;101746.31;4804272;29;120286;-80
2022/05/05 06:43:01;;;;;;;14.65;8.60;;;;;;;14.02;56.41;101736.91;4803354;29;119450;-80
2022/05/05 06:45:30;;;;;;;13.07;6.65;;;;;;;14.02;56.40;101736.91;4800918;29;121101;-81
2022/05/05 06:47:58;;;;;;;16.90;5.43;;;;;;;14.13;55.87;101750.31;4804186;29;119780;-81
2022/05/05 06:50:25;;;;;;;14.98;5.13;;;;;;;14.12;55.93;101737.72;4802445;29;119748;-80
2022/05/05 06:52:50;;;;;;;11.98;5.68;;;;;;;14.24;54.96;101749.94;4799906;29;119453;-80
2022/05/05 06:55:17;;;;;;;14.52;6.13;;;;;;;14.31;55.50;101752.41;4801159;29;119449;-80
2022/05/05 06:57:44;;;;;;;11.20;5.40;;;;;;;14.39;56.47;101751.69;4802901;29;119247;-80
2022/05/05 07:00:11;;;;;;;15.60;5.97;;;;;;;14.52;55.81;101754.44;4802945;29;119439;-80
2022/05/05 07:02:37;;;;;;;12.90;6.32;;;;;;;14.64;54.79;101759.09;4817299;29;119533;-80
2022/05/05 07:07:46;;;;;;;10.32;5.85;;;;;;;14.87;54.76;101755.06;4801760;29;119335;-80
2022/05/05 07:13:00;;;;;;;14.50;5.07;;;;;;;15.02;54.22;101758.03;4798927;29;119672;-82
2022/05/05 07:15:26;;;;;;;12.48;4.88;;;;;;;15.11;54.17;101760.81;4794681;29;119450;-80
2022/05/05 07:17:51;;;;;;;11.73;4.80;;;;;;;15.22;54.68;101771.47;4801632;29;119370;-80
2022/05/05 07:20:17;;;;;;;17.25;5.30;;;;;;;15.24;54.09;101763.47;4805009;29;120052;-80
2022/05/05 07:22:42;;;;;;;11.32;4.65;;;;;;;15.28;54.14;101770.41;4804837;29;119401;-81
2022/05/05 07:25:09;;;;;;;13.32;4.82;;;;;;;15.38;54.11;101776.75;4802124;29;119344;-80
2022/05/05 07:27:34;;;;;;;12.00;4.93;;;;;;;15.42;53.61;101779.34;4800267;29;119491;-80
2022/05/05 07:30:00;;;;;;;13.60;4.45;;;;;;;15.40;53.64;101768.75;4797497;29;121304;-80
2022/05/05 07:32:26;;;;;;;9.23;4.70;;;;;;;15.58;53.96;101788.16;4796193;29;121324;-80
2022/05/05 07:34:51;;;;;;;8.05;4.95;;;;;;;15.67;53.86;101784.66;4808517;29;119428;-81
2022/05/05 07:37:17;;;;;;;14.82;5.18;;;;;;;15.72;52.88;101772.22;4802158;29;120011;-80
2022/05/05 07:39:42;;;;;;;12.77;4.95;;;;;;;15.85;53.22;101773.63;4805055;29;119441;-80
2022/05/05 07:42:08;;;;;;;11.00;4.28;;;;;;;15.97;52.49;101785.75;4801956;29;119366;-80
2022/05/05 07:44:34;;;;;;;13.07;4.68;;;;;;;16.11;52.39;101787.16;4802870;29;120144;-80
2022/05/05 07:47:00;;;;;;;9.25;4.07;;;;;;;16.20;52.26;101798.97;4803318;29;119412;-80
2022/05/05 07:49:26;;;;;;;9.30;4.50;;;;;;;16.26;52.54;101797.13;4793861;29;119605;-81
2022/05/05 07:51:52;;;;;;;9.73;4.65;;;;;;;16.27;51.90;101797.88;4799946;29;120619;-80
2022/05/05 07:57:04;;;;;;;12.45;5.10;;;;;;;16.23;51.34;101794.50;4801125;29;120953;-80
2022/05/05 07:59:30;;;;;;;12.55;4.60;;;;;;;16.28;51.65;101805.72;4798792;29;119539;-80
2022/05/05 08:01:57;;;;;;;9.82;4.43;;;;;;;16.30;51.71;101798.97;4805876;29;119336;-80
2022/05/05 08:04:23;;;;;;;14.15;5.45;;;;;;;16.35;50.98;101807.44;4784280;29;121690;-80
2022/05/05 08:06:48;;;;;;;17.67;4.85;;;;;;;16.40;50.88;101806.03;4800853;29;119404;-81
2022/05/05 08:09:14;;;;;;;12.15;4.82;;;;;;;16.42;51.06;101798.81;4797125;29;119765;-80
2022/05/05 08:11:40;;;;;;;11.90;4.93;;;;;;;16.50;50.71;101797.25;4801711;29;119874;-80
2022/05/05 08:14:06;;;;;;;14.85;4.53;;;;;;;16.57;50.92;101807.25;4801181;29;119576;-80
2022/05/05 08:16:32;;;;;;;10.68;4.60;;;;;;;16.61;50.10;101815.41;4807718;29;119704;-80
2022/05/05 08:18:58;;;;;;;10.85;4.70;;;;;;;16.58;49.98;101806.00;4802362;29;119337;-80
2022/05/05 08:21:24;;;;;;;7.95;4.72;;;;;;;16.61;49.93;101821.69;4803032;29;119502;-80
2022/05/05 08:28:27;;;;;;;8.60;5.05;;;;;;;16.65;49.88;101816.00;4801441;29;120342;-80
2022/05/05 08:29:19;;;;;;;;;;;;;;;16.71;50.16;101825.25;4800044;29;119809;-81
2022/05/05 08:31:45;;;;;;;9.38;4.75;;;;;;;16.76;49.47;101822.59;4800072;29;120396;-80
2022/05/05 08:34:11;;;;;;;12.65;4.50;;;;;;;16.84;49.62;101823.06;4794681;29;119591;-80
2022/05/05 08:36:37;;;;;;;11.23;4.95;;;;;;;16.85;49.29;101810.75;4800468;29;122223;-80
2022/05/05 08:39:03;;;;;;;8.77;3.92;;;;;;;16.97;49.36;101818.09;4798748;29;119928;-80
2022/05/05 08:41:30;;;;;;;10.48;4.35;;;;;;;17.00;48.54;101814.38;4802272;29;119452;-80
2022/05/05 08:43:57;;;;;;;8.43;4.15;;;;;;;17.05;48.65;101822.06;4802317;29;119388;-80
2022/05/05 08:46:26;;;;;;;12.02;4.70;;;;;;;17.08;48.56;101821.13;4805249;29;120297;-80
2022/05/05 08:48:59;;;;;;;11.70;4.35;;;;;;;17.10;48.94;101824.22;4802111;29;119426;-80
2022/05/05 08:51:30;;;;;;;7.50;4.40;;;;;;;17.16;48.92;101830.66;4799291;29;120298;-80
2022/05/05 08:53:58;;;;;;;11.73;4.45;;;;;;;17.22;48.93;101833.53;4804861;29;119572;-80
2022/05/05 08:56:23;;;;;;;13.63;5.05;;;;;;;17.28;48.39;101839.25;4800386;29;119879;-80
2022/05/05 08:58:49;;;;;;;12.13;4.57;;;;;;;17.26;48.22;101833.38;4801051;29;119818;-80
2022/05/05 09:01:14;;;;;;;13.65;5.43;;;;;;;17.28;48.32;101840.00;4799003;29;119371;-80
2022/05/05 09:03:41;;;;;;;9.98;4.10;;;;;;;17.17;48.71;101829.41;4798241;29;119876;-80
2022/05/05 09:06:07;;;;;;;11.88;5.75;;;;;;;17.14;48.43;101818.50;4798545;29;119870;-80
2022/05/05 09:08:33;;;;;;;11.80;5.28;;;;;;;17.22;48.97;101830.00;4815676;29;119543;-81
2022/05/05 09:11:02;;;;;;;10.10;5.03;;;;;;;17.28;49.74;101828.16;4800286;29;119969;-81
2022/05/05 09:13:30;;;;;;;12.98;5.20;;;;;;;17.31;49.07;101839.06;4799713;29;119584;-80
2022/05/05 09:15:56;;;;;;;10.52;5.32;;;;;;;17.39;49.50;101831.16;4794839;29;119964;-80
2022/05/05 09:18:25;;;;;;;9.32;5.00;;;;;;;17.53;49.38;101838.81;4798127;29;119577;-80
2022/05/05 09:20:51;;;;;;;6.75;4.38;;;;;;;17.65;49.02;101840.56;4800448;29;119890;-80
2022/05/05 09:26:25;;;;;;;9.95;4.63;;;;;;;17.77;49.05;101833.28;4796413;29;120022;-80
2022/05/05 09:28:55;;;;;;;13.05;4.63;;;;;;;17.78;48.86;101827.28;4791487;29;119622;-80
2022/05/05 09:31:24;;;;;;;9.75;4.38;;;;;;;17.79;48.78;101842.69;4802579;29;119545;-80
2022/05/05 09:33:50;;;;;;;8.93;4.18;;;;;;;17.81;48.83;101833.13;4797419;29;119638;-80
2022/05/05 09:36:25;;;;;;;8.18;4.15;;;;;;;17.79;48.70;101836.38;4782209;29;120224;-81
2022/05/05 09:39:00;;;;;;;10.10;4.60;;;;;;;17.84;49.17;101834.94;4792189;29;119577;-80
2022/05/05 09:41:34;;;;;;;11.48;4.95;;;;;;;17.88;48.75;101836.28;4799119;29;119654;-80
2022/05/05 09:44:13;;;;;;;10.55;4.97;;;;;;;18.00;48.54;101849.16;4800189;29;119686;-80
2022/05/05 09:46:39;;;;;;;9.27;4.80;;;;;;;18.00;48.45;101842.84;4800296;29;119915;-80
2022/05/05 09:49:07;;;;;;;11.38;4.10;;;;;;;17.99;49.06;101838.53;4800609;29;119243;-80
2022/05/05 09:57:40;;;;;;;10.18;5.18;;;;;;;17.86;47.66;101854.66;4788645;29;119551;-80
2022/05/05 10:00:23;;;;;;;9.88;4.30;;;;;;;17.75;48.42;101853.19;4816695;29;119520;-80
2022/05/05 10:05:42;;;;;;;12.88;4.72;;;;;;;17.72;48.01;101850.56;4804417;29;119296;-80
2022/05/05 10:08:09;;;;;;;8.52;4.00;;;;;;;17.73;48.62;101841.78;4810851;29;120219;-80
2022/05/05 10:10:37;;;;;;;12.30;4.45;;;;;;;17.88;48.66;101850.16;4789221;29;119471;-80
2022/05/05 10:13:07;;;;;;;8.80;3.85;;;;;;;17.96;48.07;101858.91;4793953;29;119435;-80
2022/05/05 10:15:33;;;;;;;10.75;3.83;;;;;;;18.03;48.40;101847.47;4809224;29;119317;-80
2022/05/05 10:18:03;;;;;;;8.95;4.13;;;;;;;18.09;48.29;101857.44;4783798;29;119441;-80
2022/05/05 10:20:31;;;;;;;9.45;3.85;;;;;;;18.14;48.28;101853.22;4783228;29;120379;-80
2022/05/05 10:23:22;;;;;;;11.63;4.40;;;;;;;18.17;48.17;101852.25;4797373;29;120112;-81
2022/05/05 10:25:55;;;;;;;9.90;4.10;;;;;;;18.16;47.00;101845.19;4808829;29;119607;-80
2022/05/05 10:28:40;;;;;;;8.70;4.10;;;;;;;18.27;47.58;101861.31;4798894;29;122374;-80
2022/05/05 10:31:13;;;;;;;9.15;4.10;;;;;;;18.21;46.86;101843.75;4791443;29;119388;-81
2022/05/05 10:34:01;;;;;;;9.00;4.10;;;;;;;18.32;46.69;101852.31;4785366;29;119929;-80
2022/05/05 10:36:29;;;;;;;9.77;3.92;;;;;;;18.38;46.13;101859.50;4791210;29;119591;-80
2022/05/05 10:38:55;;;;;;;11.18;3.47;;;;;;;18.38;46.12;101861.50;4802373;29;119491;-80
2022/05/05 10:41:40;;;;;;;10.70;3.53;;;;;;;18.48;46.04;101860.19;4800457;29;121087;-80
2022/05/05 10:44:23;;;;;;;12.52;3.80;;;;;;;18.49;45.58;101872.84;4803557;29;119337;-80
2022/05/05 10:46:53;;;;;;;14.97;3.90;;;;;;;18.37;45.63;101877.41;4803277;29;119291;-80
2022/05/05 10:49:31;;;;;;;7.68;3.90;;;;;;;18.29;45.49;101867.91;4801535;29;119558;-80
2022/05/05 10:52:12;;;;;;;8.98;4.10;;;;;;;18.19;45.69;101877.56;4803643;29;119267;-80
2022/05/05 10:54:42;;;;;;;10.20;3.58;;;;;;;18.03;46.73;101870.44;4820861;29;119476;-80
2022/05/05 10:57:25;;;;;;;9.25;4.10;;;;;;;17.97;46.82;101869.53;4792632;29;119328;-80
2022/05/05 11:00:11;;;;;;;9.35;4.32;;;;;;;17.93;47.09;101876.50;4803196;29;119458;-80
2022/05/05 11:02:39;;;;;;;10.00;4.88;;;;;;;17.85;47.23;101862.22;4805052;29;119769;-80
2022/05/05 11:05:20;;;;;;;15.52;5.90;;;;;;;17.93;47.24;101884.84;4802163;29;119736;-80
2022/05/05 11:07:49;;;;;;;10.63;6.35;;;;;;;17.88;46.76;101875.16;4811144;29;119469;-80
2022/05/05 11:10:39;;;;;;;11.80;5.80;;;;;;;17.89;47.02;101881.47;4782401;29;119523;-80
2022/05/05 11:13:05;;;;;;;14.85;7.25;;;;;;;17.79;47.42;101880.78;4792468;29;119968;-80
2022/05/05 11:21:32;;;;;;;15.85;6.72;;;;;;;17.86;47.66;101888.75;4797070;29;121901;-81
2022/05/05 11:21:49;;;;;;;15.85;6.80;;;;;;;17.98;47.70;101907.19;4794377;29;119575;-80
2022/05/05 11:24:25;;;;;;;12.32;5.85;;;;;;;18.01;47.90;101889.56;4816084;29;119821;-80
2022/05/05 11:26:51;;;;;;;12.95;5.88;;;;;;;18.13;47.84;101889.78;4805689;29;119981;-80
2022/05/05 11:29:16;;;;;;;11.52;5.68;;;;;;;18.10;47.77;101874.84;4799122;29;119312;-81
2022/05/05 11:31:55;;;;;;;16.80;6.88;;;;;;;18.29;47.49;101892.16;4789460;29;119496;-80
2022/05/05 11:34:21;;;;;;;15.30;5.55;;;;;;;18.40;47.70;101893.13;4798377;29;119744;-81
2022/05/05 11:36:47;;;;;;;12.70;6.10;;;;;;;18.43;46.94;101891.41;4790415;29;119459;-81
2022/05/05 11:39:19;;;;;;;12.48;6.47;;;;;;;18.48;46.87;101892.78;4793763;29;120643;-80
2022/05/05 11:42:02;;;;;;;15.00;6.05;;;;;;;18.41;47.03;101889.09;4799452;29;119958;-80
2022/05/05 11:44:28;;;;;;;10.98;6.25;;;;;;;18.46;47.39;101898.81;4800452;29;120534;-80
2022/05/05 11:46:57;;;;;;;17.50;8.02;;;;;;;18.47;47.06;101891.25;4797582;29;120097;-80
2022/05/05 11:49:32;;;;;;;15.60;8.35;;;;;;;18.50;47.37;101898.63;4804555;29;119626;-80
2022/05/05 11:51:59;;;;;;;13.55;7.90;;;;;;;18.51;47.61;101889.03;4799449;29;119470;-80
2022/05/05 11:54:31;;;;;;;14.48;6.65;;;;;;;18.55;47.56;101898.72;4796336;29;119880;-80